Terminal Aerodrome Forecast
Issued by NWS Portland, OR

Home | Current Version | Previous Version | Text Only | Print | Product List | Glossary On
Versions: 1 2 3 4 5 6 7 8 9 10 11 12 13 14 15 16 17 18 19 20 21 22 23 24 25 26 27 28 29 30 31 32
000
FTUS46 KPQR 190528
TAFAST
TAF
KAST 190528Z 1906/2006 22010KT 5SM -RA BR BKN025 OVC045
      TEMPO 1906/1908 SCT025 OVC045
     FM190800 22008KT P6SM -SHRA SCT025 BKN045 BKN060
     FM191500 19009KT P6SM -SHRA BKN045 BKN060
     FM192100 16004KT P6SM -SHRA SCT045 BKN060=

USA.gov is the U.S. government's official web portal to all federal, state and local government web resources and services.